createdAt,value
2023-01-03T00:00:27.968Z,2.90
2023-01-03T00:01:27.918Z,3.10
2023-01-03T00:02:27.945Z,2.70
2023-01-03T00:03:27.974Z,2.80
2023-01-03T00:04:27.951Z,3.20
2023-01-03T00:05:27.885Z,3.20
2023-01-03T00:06:27.880Z,2.60
2023-01-03T00:07:27.871Z,2.60
2023-01-03T00:08:27.865Z,2.60
2023-01-03T00:09:27.882Z,2.50
2023-01-03T00:10:27.846Z,3.00
2023-01-03T00:11:27.842Z,2.90
2023-01-03T00:12:31.164Z,2.80
2023-01-03T00:13:28.820Z,2.70
2023-01-03T00:14:27.842Z,3.00
2023-01-03T00:15:27.807Z,2.90
2023-01-03T00:16:27.861Z,3.40
2023-01-03T00:17:27.789Z,3.20
2023-01-03T00:18:27.785Z,2.90
2023-01-03T00:19:27.802Z,3.00
2023-01-03T00:20:27.774Z,3.20
2023-01-03T00:21:27.763Z,3.20
2023-01-03T00:22:27.758Z,3.10
2023-01-03T00:23:27.744Z,3.20
2023-01-03T00:24:27.767Z,3.20
2023-01-03T00:25:27.728Z,2.80
2023-01-03T00:26:27.724Z,2.70
2023-01-03T00:27:27.712Z,2.90
2023-01-03T00:28:27.717Z,3.00
2023-01-03T00:29:27.742Z,2.60
2023-01-03T00:30:27.760Z,2.50
2023-01-03T00:31:27.717Z,3.50
2023-01-03T00:32:27.676Z,3.60
2023-01-03T00:33:27.674Z,4.30
2023-01-03T00:34:27.688Z,4.30
2023-01-03T00:35:27.657Z,4.40
2023-01-03T00:36:27.644Z,4.50
2023-01-03T00:37:27.645Z,4.00
2023-01-03T00:38:27.632Z,4.60
2023-01-03T00:39:27.620Z,4.50
2023-01-03T00:40:27.642Z,4.20
2023-01-03T00:41:27.617Z,4.30
2023-01-03T00:42:27.607Z,4.90
2023-01-03T00:43:27.618Z,5.10
2023-01-03T00:44:27.634Z,5.40
2023-01-03T00:45:31.018Z,5.60
2023-01-03T00:46:28.627Z,5.50
2023-01-03T00:47:27.568Z,5.30
2023-01-03T00:48:27.558Z,4.50
2023-01-03T00:49:27.560Z,5.00
2023-01-03T00:50:27.562Z,5.10
2023-01-03T00:51:27.531Z,4.90
2023-01-03T00:52:27.524Z,4.80
2023-01-03T00:53:27.517Z,4.90
2023-01-03T00:54:27.508Z,4.80
2023-01-03T00:55:27.534Z,4.20
2023-01-03T00:56:27.511Z,4.40
2023-01-03T00:57:27.492Z,4.00
2023-01-03T00:58:27.604Z,5.10
2023-01-03T00:59:27.482Z,4.90
2023-01-03T01:00:27.502Z,5.80
2023-01-03T01:01:27.594Z,4.40
2023-01-03T01:02:27.754Z,4.70
2023-01-03T01:03:27.559Z,4.20
2023-01-03T01:04:27.436Z,4.30
2023-01-03T01:05:27.454Z,4.60
2023-01-03T01:06:27.414Z,4.10
2023-01-03T01:07:27.413Z,3.80
2023-01-03T01:08:27.399Z,3.90
2023-01-03T01:09:27.396Z,3.40
2023-01-03T01:10:27.447Z,2.60
2023-01-03T01:11:27.370Z,3.00
2023-01-03T01:12:27.367Z,2.70
2023-01-03T01:13:27.361Z,2.90
2023-01-03T01:14:27.370Z,3.30
2023-01-03T01:15:27.371Z,2.70
2023-01-03T01:16:27.395Z,3.60
2023-01-03T01:17:27.328Z,3.50
2023-01-03T01:18:27.319Z,3.30
2023-01-03T01:19:27.314Z,3.20
2023-01-03T01:20:27.354Z,3.30
2023-01-03T01:21:27.301Z,3.10
2023-01-03T01:22:27.299Z,3.00
2023-01-03T01:23:27.360Z,3.60
2023-01-03T01:24:27.275Z,3.40
2023-01-03T01:25:27.300Z,3.60
2023-01-03T01:26:27.262Z,3.60
2023-01-03T01:27:27.258Z,3.40
2023-01-03T01:28:27.248Z,3.90
2023-01-03T01:29:27.247Z,3.50
2023-01-03T01:30:27.258Z,4.00
2023-01-03T01:31:27.318Z,4.00
2023-01-03T01:32:27.230Z,3.90
2023-01-03T01:33:27.210Z,3.30
2023-01-03T01:34:27.232Z,3.20
2023-01-03T01:35:27.219Z,3.20
2023-01-03T01:36:27.192Z,3.50
2023-01-03T01:37:27.177Z,3.10
2023-01-03T01:38:27.162Z,3.30
2023-01-03T01:39:27.172Z,3.50
2023-01-03T01:40:27.177Z,3.80
2023-01-03T01:41:27.141Z,4.00
2023-01-03T01:42:30.501Z,3.40
2023-01-03T01:43:28.122Z,3.90
2023-01-03T01:44:27.117Z,4.10
2023-01-03T01:45:27.135Z,4.20
2023-01-03T01:46:27.207Z,4.10
2023-01-03T01:47:27.097Z,4.60
2023-01-03T01:48:27.098Z,4.10
2023-01-03T01:49:27.080Z,4.20
2023-01-03T01:50:27.116Z,4.10
2023-01-03T01:51:27.077Z,4.00
2023-01-03T01:52:27.055Z,3.70
2023-01-03T01:53:27.044Z,4.10
2023-01-03T01:54:27.041Z,3.80
2023-01-03T01:55:27.070Z,3.90
2023-01-03T01:56:27.028Z,4.00
2023-01-03T01:57:27.049Z,3.40
2023-01-03T01:58:27.017Z,3.70
2023-01-03T01:59:27.000Z,3.40
2023-01-03T02:00:27.029Z,3.70
2023-01-03T02:01:27.073Z,3.70
2023-01-03T02:02:27.233Z,3.60
2023-01-03T02:03:26.988Z,3.80
2023-01-03T02:04:26.965Z,3.20
2023-01-03T02:05:26.977Z,3.20
2023-01-03T02:06:26.966Z,3.50
2023-01-03T02:07:26.946Z,3.10
2023-01-03T02:08:26.973Z,3.00
2023-01-03T02:09:26.924Z,2.70
2023-01-03T02:10:26.915Z,3.00
2023-01-03T02:11:26.922Z,2.90
2023-01-03T02:12:26.914Z,2.20
2023-01-03T02:13:26.911Z,2.10
2023-01-03T02:14:26.885Z,2.00
2023-01-03T02:15:26.878Z,2.30
2023-01-03T02:16:26.916Z,1.80
2023-01-03T02:17:26.860Z,2.60
2023-01-03T02:18:26.881Z,2.40
2023-01-03T02:19:26.859Z,2.00
2023-01-03T02:20:26.832Z,2.10
2023-01-03T02:21:26.831Z,2.10
2023-01-03T02:22:26.825Z,2.10
2023-01-03T02:23:26.848Z,2.20
2023-01-03T02:24:26.806Z,2.10
2023-01-03T02:25:26.802Z,2.00
2023-01-03T02:26:26.780Z,2.10
2023-01-03T02:27:27.782Z,1.90
2023-01-03T02:28:26.805Z,1.90
2023-01-03T02:29:26.774Z,1.90
2023-01-03T02:30:26.770Z,2.10
2023-01-03T02:31:26.775Z,1.70
2023-01-03T02:32:26.742Z,2.20
2023-01-03T02:33:26.770Z,2.20
2023-01-03T02:34:26.739Z,1.60
2023-01-03T02:35:26.719Z,2.20
2023-01-03T02:36:26.721Z,1.60
2023-01-03T02:37:26.711Z,2.00
2023-01-03T02:38:26.734Z,1.50
2023-01-03T02:39:26.693Z,1.70
2023-01-03T02:40:26.685Z,1.40
2023-01-03T02:41:26.693Z,1.90
2023-01-03T02:42:26.671Z,2.00
2023-01-03T02:43:26.660Z,1.80
2023-01-03T02:44:26.693Z,1.60
2023-01-03T02:45:26.648Z,1.50
2023-01-03T02:46:26.680Z,1.60
2023-01-03T02:47:26.635Z,1.70
2023-01-03T02:48:26.633Z,2.10
2023-01-03T02:49:26.659Z,1.80
2023-01-03T02:50:26.613Z,1.70
2023-01-03T02:51:26.621Z,2.40
2023-01-03T02:52:26.608Z,2.00
2023-01-03T02:53:26.589Z,2.10
2023-01-03T02:54:26.609Z,2.10
2023-01-03T02:55:26.571Z,2.30
2023-01-03T02:56:26.565Z,2.30
2023-01-03T02:57:26.559Z,2.20
2023-01-03T02:58:26.561Z,2.00
2023-01-03T02:59:26.576Z,2.20
2023-01-03T03:00:26.539Z,2.20
2023-01-03T03:01:26.665Z,2.10
2023-01-03T03:02:26.651Z,2.30
2023-01-03T03:03:26.583Z,2.40
2023-01-03T03:04:26.535Z,2.40
2023-01-03T03:05:26.520Z,2.60
2023-01-03T03:06:26.496Z,2.30
2023-01-03T03:07:26.498Z,2.30
2023-01-03T03:08:26.524Z,2.60
2023-01-03T03:09:26.504Z,2.70
2023-01-03T03:10:27.473Z,2.60
2023-01-03T03:11:26.505Z,2.90
2023-01-03T03:12:26.502Z,2.90
2023-01-03T03:13:26.448Z,2.90
2023-01-03T03:14:26.536Z,2.90
2023-01-03T03:15:26.469Z,2.60
2023-01-03T03:16:26.481Z,2.80
2023-01-03T03:17:26.414Z,2.70
2023-01-03T03:18:26.412Z,2.60
2023-01-03T03:19:26.446Z,2.40
2023-01-03T03:20:26.393Z,2.60
2023-01-03T03:21:26.390Z,2.40
2023-01-03T03:22:26.394Z,2.10
2023-01-03T03:23:26.373Z,2.40
2023-01-03T03:24:26.401Z,2.40
2023-01-03T03:25:26.363Z,3.20
2023-01-03T03:26:26.356Z,2.20
2023-01-03T03:27:26.371Z,2.20
2023-01-03T03:28:26.339Z,2.10
2023-01-03T03:29:26.328Z,2.20
2023-01-03T03:30:26.352Z,2.20
2023-01-03T03:31:26.342Z,2.10
2023-01-03T03:32:26.311Z,2.20
2023-01-03T03:33:26.311Z,1.80
2023-01-03T03:34:26.291Z,2.10
2023-01-03T03:35:26.315Z,2.30
2023-01-03T03:36:26.275Z,2.10
2023-01-03T03:37:26.266Z,2.50
2023-01-03T03:38:26.256Z,2.10
2023-01-03T03:39:26.253Z,2.30
2023-01-03T03:40:26.265Z,2.10
2023-01-03T03:41:26.233Z,2.00
2023-01-03T03:42:26.224Z,2.10
2023-01-03T03:43:26.220Z,2.20
2023-01-03T03:44:26.214Z,2.30
2023-01-03T03:45:26.233Z,2.30
2023-01-03T03:46:26.252Z,2.10
2023-01-03T03:47:26.192Z,2.30
2023-01-03T03:48:26.185Z,1.90
2023-01-03T03:49:26.170Z,2.30
2023-01-03T03:50:26.196Z,2.00
2023-01-03T03:51:26.158Z,2.10
2023-01-03T03:52:26.151Z,2.20
2023-01-03T03:53:26.144Z,2.40
2023-01-03T03:54:26.135Z,2.40
2023-01-03T03:55:26.151Z,2.00
2023-01-03T03:56:26.120Z,2.50
2023-01-03T03:57:26.117Z,2.00
2023-01-03T03:58:26.108Z,2.20
2023-01-03T03:59:26.097Z,2.30
2023-01-03T04:00:26.119Z,2.30
2023-01-03T04:01:26.256Z,3.10
2023-01-03T04:02:26.171Z,2.00
2023-01-03T04:03:26.134Z,2.00
2023-01-03T04:04:26.076Z,2.20
2023-01-03T04:05:26.079Z,2.00
2023-01-03T04:06:26.058Z,2.60
2023-01-03T04:07:26.039Z,2.10
2023-01-03T04:08:26.031Z,1.70
2023-01-03T04:09:26.042Z,2.30
2023-01-03T04:10:26.047Z,2.00
2023-01-03T04:11:26.010Z,2.10
2023-01-03T04:12:26.019Z,2.30
2023-01-03T04:13:25.993Z,1.90
2023-01-03T04:14:25.990Z,2.30
2023-01-03T04:15:26.024Z,2.10
2023-01-03T04:16:26.010Z,2.70
2023-01-03T04:17:25.966Z,2.40
2023-01-03T04:18:25.963Z,1.80
2023-01-03T04:19:26.041Z,2.30
2023-01-03T04:20:25.968Z,2.40
2023-01-03T04:21:25.931Z,2.40
2023-01-03T04:22:25.929Z,2.40
2023-01-03T04:23:25.916Z,2.50
2023-01-03T04:24:25.917Z,2.70
2023-01-03T04:25:25.927Z,2.30
2023-01-03T04:26:25.895Z,2.90
2023-01-03T04:27:25.887Z,2.50
2023-01-03T04:28:25.883Z,2.50
2023-01-03T04:29:25.877Z,2.60
2023-01-03T04:30:25.888Z,2.10
2023-01-03T04:31:25.906Z,2.70
2023-01-03T04:32:25.857Z,2.10
2023-01-03T04:33:25.841Z,2.30
2023-01-03T04:34:25.837Z,2.30
2023-01-03T04:35:25.864Z,2.50
2023-01-03T04:36:25.824Z,2.00
2023-01-03T04:37:25.825Z,2.00
2023-01-03T04:38:25.813Z,2.20
2023-01-03T04:39:25.802Z,2.20
2023-01-03T04:40:25.838Z,1.90
2023-01-03T04:41:25.796Z,2.20
2023-01-03T04:42:25.781Z,2.20
2023-01-03T04:43:25.785Z,2.00
2023-01-03T04:44:25.764Z,2.40
2023-01-03T04:45:25.824Z,2.40
2023-01-03T04:46:25.863Z,2.20
2023-01-03T04:47:25.743Z,2.40
2023-01-03T04:48:25.736Z,2.80
2023-01-03T04:49:25.730Z,2.50
2023-01-03T04:50:25.755Z,2.40
2023-01-03T04:51:25.712Z,2.40
2023-01-03T04:52:25.711Z,2.60
2023-01-03T04:53:25.694Z,2.30
2023-01-03T04:54:25.697Z,2.30
2023-01-03T04:55:25.688Z,3.00
2023-01-03T04:56:25.706Z,3.20
2023-01-03T04:57:25.668Z,2.80
2023-01-03T04:58:25.661Z,3.00
2023-01-03T04:59:25.665Z,2.90
2023-01-03T05:00:25.651Z,3.20
2023-01-03T05:01:25.792Z,3.30
2023-01-03T05:02:25.672Z,2.90
2023-01-03T05:03:27.905Z,2.60
2023-01-03T05:04:26.726Z,2.80
2023-01-03T05:05:25.619Z,2.30
2023-01-03T05:06:25.630Z,2.90
2023-01-03T05:07:25.600Z,2.80
2023-01-03T05:08:25.578Z,2.70
2023-01-03T05:09:26.587Z,2.80
2023-01-03T05:10:25.583Z,2.80
2023-01-03T05:11:25.594Z,2.90
2023-01-03T05:12:25.559Z,3.00
2023-01-03T05:13:25.552Z,3.60
2023-01-03T05:14:25.557Z,4.00
2023-01-03T05:15:25.543Z,5.10
2023-01-03T05:16:25.582Z,5.50
2023-01-03T05:17:25.527Z,6.40
2023-01-03T05:18:25.524Z,6.80
2023-01-03T05:19:25.512Z,7.20
2023-01-03T05:20:25.508Z,7.00
2023-01-03T05:21:25.534Z,5.90
2023-01-03T05:22:25.486Z,5.30
2023-01-03T05:23:25.476Z,5.30
2023-01-03T05:24:25.475Z,4.40
2023-01-03T05:25:25.461Z,4.10
2023-01-03T05:26:25.493Z,4.30
2023-01-03T05:27:25.446Z,3.40
2023-01-03T05:28:25.441Z,3.50
2023-01-03T05:29:25.432Z,3.20
2023-01-03T05:30:25.424Z,4.80
2023-01-03T05:31:25.488Z,5.20
2023-01-03T05:32:25.404Z,5.70
2023-01-03T05:33:25.398Z,4.90
2023-01-03T05:34:25.391Z,4.30
2023-01-03T05:35:25.390Z,3.90
2023-01-03T05:36:25.403Z,3.60
2023-01-03T05:37:25.384Z,4.00
2023-01-03T05:38:25.369Z,3.80
2023-01-03T05:39:25.363Z,4.00
2023-01-03T05:40:25.347Z,3.50
2023-01-03T05:41:25.363Z,3.70
2023-01-03T05:42:25.330Z,4.40
2023-01-03T05:43:25.319Z,5.90
2023-01-03T05:44:25.318Z,6.30
2023-01-03T05:45:25.313Z,6.60
2023-01-03T05:46:25.376Z,6.40
2023-01-03T05:47:25.300Z,6.30
2023-01-03T05:48:25.279Z,5.10
2023-01-03T05:49:25.280Z,6.30
2023-01-03T05:50:25.266Z,5.60
2023-01-03T05:51:25.287Z,5.20
2023-01-03T05:52:25.257Z,5.70
2023-01-03T05:53:25.264Z,8.00
2023-01-03T05:54:25.237Z,12.30
2023-01-03T05:55:25.303Z,14.50
2023-01-03T05:56:25.273Z,14.60
2023-01-03T05:57:28.226Z,13.30
2023-01-03T05:58:26.211Z,16.40
2023-01-03T05:59:25.200Z,16.20
2023-01-03T06:00:25.193Z,15.00
2023-01-03T06:01:25.252Z,12.30
2023-01-03T06:02:25.269Z,11.10
2023-01-03T06:03:25.172Z,9.50
2023-01-03T06:04:25.238Z,6.90
2023-01-03T06:05:25.161Z,6.30
2023-01-03T06:06:25.175Z,6.10
2023-01-03T06:07:25.144Z,6.20
2023-01-03T06:08:25.183Z,7.20
2023-01-03T06:09:25.132Z,6.50
2023-01-03T06:10:25.135Z,7.60
2023-01-03T06:11:25.141Z,6.80
2023-01-03T06:12:25.113Z,6.20
2023-01-03T06:13:25.105Z,6.60
2023-01-03T06:14:25.089Z,4.90
2023-01-03T06:15:25.104Z,6.50
2023-01-03T06:16:25.227Z,8.30
2023-01-03T06:17:25.143Z,15.80
2023-01-03T06:18:25.091Z,14.90
2023-01-03T06:19:25.059Z,11.70
2023-01-03T06:20:25.048Z,10.10
2023-01-03T06:21:25.065Z,8.60
2023-01-03T06:22:25.031Z,7.90
2023-01-03T06:23:25.024Z,7.20
2023-01-03T06:24:25.014Z,6.90
2023-01-03T06:25:25.008Z,6.60
2023-01-03T06:26:25.033Z,6.30
2023-01-03T06:27:25.008Z,5.90
2023-01-03T06:28:24.987Z,6.90
2023-01-03T06:29:24.992Z,6.70
2023-01-03T06:30:25.073Z,7.40
2023-01-03T06:31:25.056Z,7.10
2023-01-03T06:32:24.980Z,6.40
2023-01-03T06:33:24.943Z,5.70
2023-01-03T06:34:24.937Z,5.90
2023-01-03T06:35:24.929Z,6.70
2023-01-03T06:36:24.933Z,10.40
2023-01-03T06:37:24.938Z,12.40
2023-01-03T06:38:24.906Z,13.30
2023-01-03T06:39:24.902Z,11.10
2023-01-03T06:40:27.847Z,8.80
2023-01-03T06:41:25.884Z,6.90
2023-01-03T06:42:24.898Z,6.10
2023-01-03T06:43:24.868Z,6.20
2023-01-03T06:44:24.862Z,5.40
2023-01-03T06:45:24.854Z,5.20
2023-01-03T06:46:24.892Z,5.30
2023-01-03T06:47:24.868Z,5.30
2023-01-03T06:48:24.836Z,5.40
2023-01-03T06:49:24.821Z,5.60
2023-01-03T06:50:24.814Z,7.00
2023-01-03T06:51:24.810Z,8.30
2023-01-03T06:52:24.846Z,9.10
2023-01-03T06:53:24.799Z,7.30
2023-01-03T06:54:24.789Z,7.00
2023-01-03T06:55:24.776Z,6.80
2023-01-03T06:56:24.789Z,7.60
2023-01-03T06:57:25.771Z,8.00
2023-01-03T06:58:24.753Z,7.70
2023-01-03T06:59:24.766Z,7.30
2023-01-03T07:00:24.738Z,6.90
2023-01-03T07:01:24.839Z,6.30
2023-01-03T07:02:24.920Z,5.70
2023-01-03T07:03:24.716Z,5.50
2023-01-03T07:04:24.739Z,5.10
2023-01-03T07:05:24.697Z,5.40
2023-01-03T07:06:24.692Z,5.60
2023-01-03T07:07:24.712Z,4.90
2023-01-03T07:08:24.677Z,4.90
2023-01-03T07:09:24.668Z,5.40
2023-01-03T07:10:24.660Z,5.40
2023-01-03T07:11:24.660Z,4.90
2023-01-03T07:12:24.676Z,5.70
2023-01-03T07:13:24.648Z,5.80
2023-01-03T07:14:24.637Z,6.40
2023-01-03T07:15:24.628Z,5.40
2023-01-03T07:16:24.659Z,5.70
2023-01-03T07:17:24.637Z,5.30
2023-01-03T07:18:24.600Z,6.10
2023-01-03T07:19:24.590Z,5.80
2023-01-03T07:20:24.607Z,6.30
2023-01-03T07:21:24.575Z,5.70
2023-01-03T07:22:24.570Z,6.20
2023-01-03T07:23:24.589Z,6.00
2023-01-03T07:24:24.551Z,6.10
2023-01-03T07:25:24.549Z,6.70
2023-01-03T07:26:24.533Z,7.00
2023-01-03T07:27:24.538Z,6.70
2023-01-03T07:28:24.544Z,7.20
2023-01-03T07:29:24.517Z,7.50
2023-01-03T07:30:24.505Z,6.40
2023-01-03T07:31:24.526Z,6.60
2023-01-03T07:32:24.497Z,6.90
2023-01-03T07:33:24.511Z,6.80
2023-01-03T07:34:25.470Z,6.50
2023-01-03T07:35:24.467Z,6.50
2023-01-03T07:36:24.461Z,7.10
2023-01-03T07:37:24.450Z,6.10
2023-01-03T07:38:24.467Z,6.80
2023-01-03T07:39:24.460Z,6.50
2023-01-03T07:40:24.427Z,6.70
2023-01-03T07:41:24.421Z,6.30
2023-01-03T07:42:24.413Z,6.40
2023-01-03T07:43:24.475Z,7.00
2023-01-03T07:44:24.396Z,6.80
2023-01-03T07:45:24.389Z,7.50
2023-01-03T07:46:24.471Z,8.30
2023-01-03T07:47:24.376Z,9.70
2023-01-03T07:48:24.388Z,9.70
2023-01-03T07:49:24.351Z,7.90
2023-01-03T07:50:24.355Z,7.90
2023-01-03T07:51:24.341Z,7.20
2023-01-03T07:52:24.349Z,7.00
2023-01-03T07:53:24.345Z,6.90
2023-01-03T07:54:24.312Z,7.20
2023-01-03T07:55:25.305Z,6.70
2023-01-03T07:56:24.304Z,7.10
2023-01-03T07:57:24.296Z,7.10
2023-01-03T07:58:24.313Z,7.10
2023-01-03T07:59:24.276Z,7.20
2023-01-03T08:00:24.299Z,7.40
2023-01-03T08:01:24.307Z,7.90
2023-01-03T08:02:24.354Z,7.90
2023-01-03T08:03:24.273Z,7.00
2023-01-03T08:04:24.284Z,7.40
2023-01-03T08:05:24.232Z,7.30
2023-01-03T08:06:24.244Z,6.70
2023-01-03T08:07:24.216Z,7.50
2023-01-03T08:08:24.248Z,6.30
2023-01-03T08:09:24.205Z,6.00
2023-01-03T08:10:24.200Z,6.50
2023-01-03T08:11:24.207Z,5.90
2023-01-03T08:12:24.183Z,5.80
2023-01-03T08:13:24.201Z,6.10
2023-01-03T08:14:26.686Z,6.60
2023-01-03T08:15:25.157Z,5.90
2023-01-03T08:16:24.273Z,4.50
2023-01-03T08:17:24.149Z,4.90
2023-01-03T08:18:24.190Z,5.00
2023-01-03T08:19:24.147Z,4.60
2023-01-03T08:20:24.135Z,4.40
2023-01-03T08:21:24.114Z,4.40
2023-01-03T08:22:24.108Z,4.00
2023-01-03T08:23:24.130Z,4.30
2023-01-03T08:24:24.089Z,4.00
2023-01-03T08:25:24.089Z,4.10
2023-01-03T08:26:24.073Z,3.70
2023-01-03T08:27:24.072Z,4.50
2023-01-03T08:28:24.069Z,4.10
2023-01-03T08:29:24.075Z,4.00
2023-01-03T08:30:24.041Z,4.30
2023-01-03T08:31:24.078Z,4.10
2023-01-03T08:32:24.078Z,3.90
2023-01-03T08:33:24.009Z,3.70
2023-01-03T08:34:29.314Z,4.10
2023-01-03T08:35:25.997Z,4.10
2023-01-03T08:36:24.003Z,3.80
2023-01-03T08:37:23.993Z,3.80
2023-01-03T08:38:23.974Z,4.60
2023-01-03T08:39:24.000Z,4.20
2023-01-03T08:40:23.986Z,4.40
2023-01-03T08:41:23.969Z,4.80
2023-01-03T08:42:23.965Z,4.40
2023-01-03T08:43:23.938Z,3.40
2023-01-03T08:44:23.975Z,3.80
2023-01-03T08:45:23.935Z,3.60
2023-01-03T08:46:23.990Z,3.70
2023-01-03T08:47:23.912Z,3.90
2023-01-03T08:48:23.902Z,3.70
2023-01-03T08:49:23.925Z,4.00
2023-01-03T08:50:23.886Z,4.00
2023-01-03T08:51:23.874Z,4.10
2023-01-03T08:52:23.890Z,3.90
2023-01-03T08:53:23.902Z,3.70
2023-01-03T08:54:23.909Z,3.80
2023-01-03T08:55:23.858Z,3.80
2023-01-03T08:56:23.843Z,3.60
2023-01-03T08:57:23.837Z,4.00
2023-01-03T08:58:23.838Z,3.80
2023-01-03T08:59:23.850Z,3.40
2023-01-03T09:00:23.815Z,3.40
2023-01-03T09:01:23.882Z,3.20
2023-01-03T09:02:23.873Z,3.70
2023-01-03T09:03:23.922Z,3.50
2023-01-03T09:04:23.804Z,4.00
2023-01-03T09:05:23.764Z,3.90
2023-01-03T09:06:23.765Z,4.20
2023-01-03T09:07:23.760Z,3.90
2023-01-03T09:08:23.745Z,4.10
2023-01-03T09:09:23.778Z,4.10
2023-01-03T09:10:23.778Z,4.40
2023-01-03T09:11:23.728Z,3.90
2023-01-03T09:12:23.725Z,4.30
2023-01-03T09:13:23.710Z,3.60
2023-01-03T09:14:23.728Z,3.60
2023-01-03T09:15:23.696Z,3.10
2023-01-03T09:16:23.725Z,3.10
2023-01-03T09:17:23.685Z,3.10
2023-01-03T09:18:23.672Z,3.10
2023-01-03T09:19:23.684Z,3.00
2023-01-03T09:20:24.662Z,2.20
2023-01-03T09:21:23.668Z,2.40
2023-01-03T09:22:23.638Z,2.60
2023-01-03T09:23:23.638Z,2.40
2023-01-03T09:24:23.656Z,2.60
2023-01-03T09:25:23.641Z,2.30
2023-01-03T09:26:23.622Z,2.30
2023-01-03T09:27:23.607Z,2.00
2023-01-03T09:28:23.593Z,2.40
2023-01-03T09:29:23.666Z,2.10
2023-01-03T09:30:23.580Z,2.50
2023-01-03T09:31:23.621Z,2.90
2023-01-03T09:32:24.568Z,2.70
2023-01-03T09:33:23.568Z,2.30
2023-01-03T09:34:23.583Z,2.70
2023-01-03T09:35:23.552Z,2.70
2023-01-03T09:36:23.546Z,3.00
2023-01-03T09:37:23.541Z,2.70
2023-01-03T09:38:23.521Z,2.70
2023-01-03T09:39:23.537Z,2.70
2023-01-03T09:40:23.509Z,2.90
2023-01-03T09:41:23.497Z,3.60
2023-01-03T09:42:23.493Z,3.20
2023-01-03T09:43:25.610Z,3.10
2023-01-03T09:44:24.499Z,3.20
2023-01-03T09:45:23.459Z,3.00
2023-01-03T09:46:23.480Z,2.90
2023-01-03T09:47:23.478Z,3.20
2023-01-03T09:48:23.444Z,2.80
2023-01-03T09:49:23.438Z,3.30
2023-01-03T09:50:57.266Z,3.10
2023-01-03T09:51:29.843Z,3.70
2023-01-03T09:52:25.409Z,2.80
2023-01-03T09:53:23.404Z,3.20
2023-01-03T09:54:23.392Z,3.30
2023-01-03T09:55:23.417Z,3.20
2023-01-03T09:56:23.387Z,3.50
2023-01-03T09:57:28.452Z,3.10
2023-01-03T09:58:25.370Z,3.10
2023-01-03T09:59:23.385Z,3.20
2023-01-03T10:00:23.377Z,3.10
2023-01-03T10:01:23.457Z,3.60
2023-01-03T10:02:23.441Z,3.30
2023-01-03T10:03:23.363Z,3.40
2023-01-03T10:04:23.325Z,3.90
2023-01-03T10:05:23.358Z,4.30
2023-01-03T10:06:23.314Z,4.10
2023-01-03T10:07:23.302Z,4.30
2023-01-03T10:08:23.301Z,4.80
2023-01-03T10:09:23.272Z,4.70
2023-01-03T10:10:23.303Z,4.80
2023-01-03T10:11:23.257Z,5.20
2023-01-03T10:12:23.258Z,4.80
2023-01-03T10:13:23.247Z,4.80
2023-01-03T10:14:23.249Z,4.20
2023-01-03T10:15:23.267Z,5.20
2023-01-03T10:16:23.245Z,4.50
2023-01-03T10:17:23.214Z,4.80
2023-01-03T10:18:23.206Z,5.00
2023-01-03T10:19:23.201Z,5.50
2023-01-03T10:20:27.887Z,5.80
2023-01-03T10:21:25.188Z,5.10
2023-01-03T10:22:23.170Z,5.20
2023-01-03T10:23:23.170Z,4.80
2023-01-03T10:24:23.155Z,4.40
2023-01-03T10:25:23.187Z,4.20
2023-01-03T10:26:27.780Z,4.40
2023-01-03T10:27:24.133Z,4.40
2023-01-03T10:28:23.154Z,4.30
2023-01-03T10:29:23.119Z,4.10
2023-01-03T10:30:23.138Z,4.40
2023-01-03T10:31:23.143Z,4.10
2023-01-03T10:32:23.093Z,4.30
2023-01-03T10:33:23.088Z,4.50
2023-01-03T10:34:23.091Z,4.40
2023-01-03T10:35:23.100Z,4.40
2023-01-03T10:36:23.098Z,5.00
2023-01-03T10:37:23.055Z,5.00
2023-01-03T10:38:23.117Z,5.10
2023-01-03T10:39:23.036Z,4.50
2023-01-03T10:40:23.057Z,4.80
2023-01-03T10:41:23.021Z,5.20
2023-01-03T10:42:23.026Z,4.60
2023-01-03T10:43:23.009Z,5.20
2023-01-03T10:44:22.997Z,4.90
2023-01-03T10:45:22.998Z,5.20
2023-01-03T10:46:23.056Z,5.20
2023-01-03T10:47:22.980Z,5.50
2023-01-03T10:48:22.971Z,5.00
2023-01-03T10:49:31.072Z,5.60
2023-01-03T10:50:24.960Z,5.30
2023-01-03T10:51:22.971Z,5.00
2023-01-03T10:52:22.947Z,5.20
2023-01-03T10:53:22.975Z,5.40
2023-01-03T10:54:22.932Z,5.30
2023-01-03T10:55:22.915Z,5.40
2023-01-03T10:56:22.935Z,5.60
2023-01-03T10:57:22.900Z,5.20
2023-01-03T10:58:22.894Z,4.90
2023-01-03T10:59:22.892Z,5.10
2023-01-03T11:00:22.885Z,5.10
2023-01-03T11:01:23.000Z,4.80
2023-01-03T11:02:23.164Z,5.10
2023-01-03T11:03:22.870Z,4.60
2023-01-03T11:04:22.846Z,4.80
2023-01-03T11:05:22.847Z,5.10
2023-01-03T11:06:22.859Z,5.10
2023-01-03T11:07:22.831Z,4.80
2023-01-03T11:08:22.844Z,5.60
2023-01-03T11:09:22.817Z,4.70
2023-01-03T11:10:22.814Z,5.10
2023-01-03T11:11:22.826Z,4.20
2023-01-03T11:12:22.793Z,4.00
2023-01-03T11:13:22.785Z,4.10
2023-01-03T11:14:22.762Z,4.10
2023-01-03T11:15:23.770Z,3.70
2023-01-03T11:16:22.812Z,3.60
2023-01-03T11:17:22.760Z,4.00
2023-01-03T11:18:22.745Z,3.90
2023-01-03T11:19:22.744Z,3.70
2023-01-03T11:20:22.733Z,3.90
2023-01-03T11:21:22.745Z,4.10
2023-01-03T11:22:22.709Z,4.00
2023-01-03T11:23:22.713Z,4.00
2023-01-03T11:24:22.697Z,3.60
2023-01-03T11:25:22.703Z,4.00
2023-01-03T11:26:22.695Z,3.30
2023-01-03T11:27:22.710Z,3.70
2023-01-03T11:28:22.658Z,3.50
2023-01-03T11:29:23.671Z,4.10
2023-01-03T11:30:22.667Z,3.80
2023-01-03T11:31:22.669Z,3.80
2023-01-03T11:32:22.757Z,4.30
2023-01-03T11:33:28.831Z,3.80
2023-01-03T11:34:24.630Z,3.20
2023-01-03T11:35:24.550Z,3.50
2023-01-03T11:36:23.610Z,3.50
2023-01-03T11:37:22.621Z,3.80
2023-01-03T11:38:23.599Z,3.50
2023-01-03T11:39:26.836Z,4.00
2023-01-03T11:40:23.578Z,3.50
2023-01-03T11:41:22.574Z,3.90
2023-01-03T11:42:22.597Z,3.80
2023-01-03T11:43:22.572Z,3.60
2023-01-03T11:44:22.551Z,3.80
2023-01-03T11:45:22.536Z,3.60
2023-01-03T11:46:22.602Z,3.50
2023-01-03T11:47:22.557Z,3.60
2023-01-03T11:48:22.530Z,3.40
2023-01-03T11:49:22.510Z,3.60
2023-01-03T11:50:22.509Z,3.50
2023-01-03T11:51:22.513Z,3.60
2023-01-03T11:52:22.520Z,3.30
2023-01-03T11:53:22.491Z,3.70
2023-01-03T11:54:22.480Z,3.10
2023-01-03T11:55:22.474Z,3.40
2023-01-03T11:56:22.463Z,3.00
2023-01-03T11:57:22.476Z,2.70
2023-01-03T11:58:22.438Z,2.50
2023-01-03T11:59:22.447Z,2.50
2023-01-03T12:00:22.435Z,2.30
2023-01-03T12:01:22.461Z,1.80
2023-01-03T12:02:22.625Z,1.40
2023-01-03T12:03:22.487Z,2.10
2023-01-03T12:04:22.428Z,1.80
2023-01-03T12:05:22.398Z,1.40
2023-01-03T12:06:26.742Z,2.40
2023-01-03T12:07:49.479Z,2.80
2023-01-03T12:08:24.367Z,1.80
2023-01-03T12:09:22.373Z,1.70
2023-01-03T12:10:22.363Z,1.70
2023-01-03T12:11:22.350Z,1.70
2023-01-03T12:12:22.371Z,2.10
2023-01-03T12:13:28.858Z,1.90
2023-01-03T12:14:24.315Z,1.50
2023-01-03T12:15:22.329Z,1.60
2023-01-03T12:16:22.382Z,1.50
2023-01-03T12:17:22.330Z,1.50
2023-01-03T12:18:22.299Z,1.70
2023-01-03T12:19:22.289Z,1.60
2023-01-03T12:20:22.290Z,1.70
2023-01-03T12:21:22.279Z,1.50
2023-01-03T12:22:22.262Z,1.60
2023-01-03T12:23:22.282Z,1.60
2023-01-03T12:24:22.239Z,1.50
2023-01-03T12:25:22.241Z,1.60
2023-01-03T12:26:22.228Z,1.50
2023-01-03T12:27:22.241Z,1.40
2023-01-03T12:28:22.233Z,1.50
2023-01-03T12:29:22.202Z,1.70
2023-01-03T12:30:22.204Z,1.50
2023-01-03T12:31:26.285Z,1.60
2023-01-03T12:32:24.184Z,1.40
2023-01-03T12:33:22.195Z,1.60
2023-01-03T12:34:22.166Z,1.40
2023-01-03T12:35:22.148Z,1.30
2023-01-03T12:36:23.151Z,1.50
2023-01-03T12:37:23.141Z,1.30
2023-01-03T12:38:22.154Z,1.50
2023-01-03T12:39:24.855Z,1.50
2023-01-03T12:40:23.107Z,1.80
2023-01-03T12:41:22.108Z,1.40
2023-01-03T12:42:22.098Z,1.50
2023-01-03T12:43:22.113Z,1.70
2023-01-03T12:44:22.086Z,2.10
2023-01-03T12:45:22.078Z,1.40
2023-01-03T12:46:22.104Z,1.30
2023-01-03T12:47:22.063Z,1.20
2023-01-03T12:48:22.081Z,1.10
2023-01-03T12:49:22.054Z,1.40
2023-01-03T12:50:22.042Z,1.10
2023-01-03T12:51:22.028Z,1.00
2023-01-03T12:52:23.025Z,1.00
2023-01-03T12:53:22.045Z,1.20
2023-01-03T12:54:22.015Z,1.00
2023-01-03T12:55:22.007Z,1.10
2023-01-03T12:56:21.991Z,1.00
2023-01-03T12:57:21.983Z,1.40
2023-01-03T12:58:22.001Z,1.00
2023-01-03T12:59:22.965Z,1.60
2023-01-03T13:00:21.962Z,1.00
2023-01-03T13:01:22.108Z,1.60
2023-01-03T13:02:22.153Z,1.10
2023-01-03T13:03:22.032Z,1.10
2023-01-03T13:04:24.048Z,1.20
2023-01-03T13:05:22.911Z,1.30
2023-01-03T13:06:21.925Z,1.00
2023-01-03T13:07:21.908Z,1.20
2023-01-03T13:08:21.905Z,1.30
2023-01-03T13:09:21.911Z,1.40
2023-01-03T13:10:21.884Z,1.20
2023-01-03T13:11:21.872Z,1.30
2023-01-03T13:12:21.874Z,1.60
2023-01-03T13:13:21.854Z,1.50
2023-01-03T13:14:21.875Z,1.20
2023-01-03T13:15:21.863Z,1.50
2023-01-03T13:16:21.868Z,1.30
2023-01-03T13:17:21.833Z,1.30